createdAt,value
2019-02-06T00:00:32.917Z,25.3
2019-02-06T00:01:34.281Z,25.2
2019-02-06T00:02:35.668Z,25.1
2019-02-06T00:03:37.063Z,25.2
2019-02-06T00:04:38.450Z,25.2
2019-02-06T00:05:39.834Z,25.1
2019-02-06T00:06:41.215Z,25.1
2019-02-06T00:07:42.598Z,25.1
2019-02-06T00:08:43.992Z,25.0
2019-02-06T00:09:45.457Z,25.2
2019-02-06T00:10:46.702Z,25.0
2019-02-06T00:11:48.066Z,25.1
2019-02-06T00:12:49.443Z,24.8
2019-02-06T00:13:50.826Z,24.8
2019-02-06T00:14:52.193Z,25.0
2019-02-06T00:15:53.619Z,24.8
2019-02-06T00:16:54.923Z,24.7
2019-02-06T00:17:56.254Z,24.8
2019-02-06T00:18:57.629Z,25.0
2019-02-06T00:19:58.950Z,25.1
2019-02-06T00:21:00.335Z,24.8
2019-02-06T00:22:01.680Z,24.7
2019-02-06T00:23:03.086Z,24.8
2019-02-06T00:24:04.449Z,24.8
2019-02-06T00:25:05.814Z,24.7
2019-02-06T00:26:07.187Z,24.8
2019-02-06T00:27:08.556Z,24.8
2019-02-06T00:28:09.936Z,24.9
2019-02-06T00:29:11.344Z,24.7
2019-02-06T00:30:12.678Z,24.9
2019-02-06T00:31:14.060Z,24.8
2019-02-06T00:32:15.430Z,25.0
2019-02-06T00:33:16.812Z,24.8
2019-02-06T00:34:18.176Z,24.7
2019-02-06T00:35:25.726Z,24.7
2019-02-06T00:36:21.155Z,24.8
2019-02-06T00:37:22.541Z,24.7
2019-02-06T00:38:23.937Z,24.7
2019-02-06T00:39:25.289Z,24.8
2019-02-06T00:40:26.651Z,24.8
2019-02-06T00:41:28.026Z,24.7
2019-02-06T00:42:29.401Z,24.9
2019-02-06T00:43:30.766Z,24.7
2019-02-06T00:44:32.137Z,25.0
2019-02-06T00:45:33.637Z,24.9
2019-02-06T00:46:34.848Z,25.0
2019-02-06T00:47:36.233Z,24.7
2019-02-06T00:48:37.611Z,24.8
2019-02-06T00:49:38.978Z,24.7
2019-02-06T00:50:40.362Z,24.7
2019-02-06T00:51:41.793Z,24.8
2019-02-06T00:52:43.154Z,24.7
2019-02-06T00:53:44.538Z,25.0
2019-02-06T00:54:45.910Z,24.8
2019-02-06T00:55:47.270Z,24.8
2019-02-06T00:56:48.610Z,25.0
2019-02-06T00:57:50.039Z,25.0
2019-02-06T00:58:51.418Z,24.8
2019-02-06T00:59:52.973Z,24.8
2019-02-06T01:00:54.347Z,24.7
2019-02-06T01:01:55.747Z,24.8
2019-02-06T01:02:57.148Z,24.9
2019-02-06T01:03:58.548Z,25.1
2019-02-06T01:04:59.876Z,25.0
2019-02-06T01:06:01.250Z,24.8
2019-02-06T01:07:02.619Z,24.9
2019-02-06T01:08:03.989Z,24.9
2019-02-06T01:09:05.363Z,24.8
2019-02-06T01:10:06.730Z,24.7
2019-02-06T01:11:08.123Z,24.7
2019-02-06T01:12:09.490Z,24.7
2019-02-06T01:13:10.858Z,24.9
2019-02-06T01:14:12.191Z,24.7
2019-02-06T01:15:13.562Z,24.9
2019-02-06T01:16:14.940Z,24.9
2019-02-06T01:17:16.351Z,24.6
2019-02-06T01:18:17.742Z,24.8
2019-02-06T01:19:19.106Z,24.7
2019-02-06T01:20:20.486Z,24.6
2019-02-06T01:21:21.847Z,24.9
2019-02-06T01:22:23.226Z,24.8
2019-02-06T01:23:24.564Z,24.7
2019-02-06T01:24:25.947Z,25.0
2019-02-06T01:25:27.314Z,25.0
2019-02-06T01:26:28.692Z,24.8
2019-02-06T01:27:30.075Z,25.0
2019-02-06T01:28:31.446Z,24.9
2019-02-06T01:29:32.813Z,24.8
2019-02-06T01:30:34.191Z,24.9
2019-02-06T01:31:35.565Z,24.8
2019-02-06T01:32:36.900Z,24.9
2019-02-06T01:33:38.305Z,24.9
2019-02-06T01:34:39.667Z,24.7
2019-02-06T01:35:49.651Z,24.9
2019-02-06T01:36:42.380Z,24.9
2019-02-06T01:37:43.757Z,24.8
2019-02-06T01:38:45.126Z,24.7
2019-02-06T01:39:46.494Z,24.6
2019-02-06T01:40:47.858Z,24.8
2019-02-06T01:41:49.238Z,25.1
2019-02-06T01:42:50.613Z,25.1
2019-02-06T01:43:51.991Z,25.0
2019-02-06T01:44:53.364Z,24.8
2019-02-06T01:45:54.738Z,25.0
2019-02-06T01:46:56.118Z,24.8
2019-02-06T01:47:57.494Z,24.9
2019-02-06T01:48:58.872Z,24.7
2019-02-06T01:50:00.311Z,24.8
2019-02-06T01:51:01.540Z,24.9
2019-02-06T01:52:02.922Z,24.7
2019-02-06T01:53:04.900Z,24.8
2019-02-06T01:54:06.267Z,24.7
2019-02-06T01:55:07.649Z,24.9
2019-02-06T01:56:09.006Z,24.8
2019-02-06T01:57:10.378Z,25.0
2019-02-06T01:58:11.767Z,24.9
2019-02-06T01:59:13.107Z,25.0
2019-02-06T02:00:14.476Z,24.8
2019-02-06T02:01:15.845Z,24.7
2019-02-06T02:02:17.216Z,25.0
2019-02-06T02:03:18.582Z,24.8
2019-02-06T02:04:19.948Z,24.7
2019-02-06T02:05:21.313Z,24.8
2019-02-06T02:06:22.688Z,24.8
2019-02-06T02:07:24.058Z,24.7
2019-02-06T02:08:25.392Z,24.7
2019-02-06T02:09:26.724Z,24.9
2019-02-06T02:10:28.084Z,24.8
2019-02-06T02:11:29.479Z,24.8
2019-02-06T02:12:30.844Z,24.7
2019-02-06T02:13:32.215Z,24.6
2019-02-06T02:14:33.587Z,25.0
2019-02-06T02:15:34.956Z,24.6
2019-02-06T02:16:36.320Z,24.7
2019-02-06T02:17:37.652Z,24.8
2019-02-06T02:18:39.025Z,24.6
2019-02-06T02:19:40.387Z,24.7
2019-02-06T02:20:41.756Z,24.8
2019-02-06T02:21:43.138Z,24.8
2019-02-06T02:22:44.505Z,25.0
2019-02-06T02:23:45.879Z,24.7
2019-02-06T02:24:47.242Z,24.7
2019-02-06T02:25:48.608Z,24.7
2019-02-06T02:26:49.939Z,24.9
2019-02-06T02:27:51.309Z,24.7
2019-02-06T02:28:52.673Z,24.8
2019-02-06T02:29:54.054Z,24.8
2019-02-06T02:30:55.493Z,24.8
2019-02-06T02:31:56.863Z,24.8
2019-02-06T02:32:58.268Z,24.8
2019-02-06T02:33:59.699Z,24.8
2019-02-06T02:35:01.068Z,24.8
2019-02-06T02:36:14.511Z,25.0
2019-02-06T02:37:03.774Z,24.9
2019-02-06T02:38:05.154Z,24.8
2019-02-06T02:39:21.125Z,24.7
2019-02-06T02:40:22.505Z,24.8
2019-02-06T02:41:23.860Z,24.8
2019-02-06T02:42:25.234Z,24.8
2019-02-06T02:43:26.598Z,24.8
2019-02-06T02:44:27.972Z,25.1
2019-02-06T02:45:29.339Z,24.8
2019-02-06T02:46:30.712Z,24.8
2019-02-06T02:47:32.085Z,24.7
2019-02-06T02:48:33.421Z,25.0
2019-02-06T02:49:34.797Z,24.9
2019-02-06T02:50:36.118Z,24.8
2019-02-06T02:51:37.492Z,25.0
2019-02-06T02:52:38.863Z,25.0
2019-02-06T02:53:40.231Z,25.0
2019-02-06T02:54:41.590Z,24.8
2019-02-06T02:55:42.992Z,24.8
2019-02-06T02:56:44.361Z,24.7
2019-02-06T02:57:45.737Z,24.8
2019-02-06T02:58:47.099Z,24.7
2019-02-06T02:59:48.475Z,24.8
2019-02-06T03:00:49.840Z,24.7
2019-02-06T03:01:51.212Z,24.6
2019-02-06T03:02:52.581Z,24.6
2019-02-06T03:03:53.955Z,24.8
2019-02-06T03:04:55.318Z,25.0
2019-02-06T03:05:56.691Z,24.8
2019-02-06T03:06:58.037Z,24.9
2019-02-06T03:07:59.398Z,25.0
2019-02-06T03:09:00.772Z,25.0
2019-02-06T03:10:02.145Z,24.8
2019-02-06T03:11:03.509Z,24.7
2019-02-06T03:12:04.882Z,24.7
2019-02-06T03:13:06.253Z,24.7
2019-02-06T03:14:07.646Z,24.8
2019-02-06T03:15:09.010Z,24.7
2019-02-06T03:16:10.342Z,24.8
2019-02-06T03:17:11.714Z,24.6
2019-02-06T03:18:13.082Z,24.7
2019-02-06T03:19:14.467Z,24.5
2019-02-06T03:20:15.839Z,24.5
2019-02-06T03:21:17.209Z,24.7
2019-02-06T03:22:18.583Z,24.8
2019-02-06T03:23:19.951Z,24.7
2019-02-06T03:24:21.323Z,24.7
2019-02-06T03:25:22.648Z,24.7
2019-02-06T03:26:24.041Z,24.7
2019-02-06T03:27:25.403Z,24.8
2019-02-06T03:28:26.777Z,24.6
2019-02-06T03:29:28.135Z,24.7
2019-02-06T03:30:29.508Z,24.7
2019-02-06T03:31:30.888Z,24.7
2019-02-06T03:32:32.248Z,24.7
2019-02-06T03:33:33.620Z,24.9
2019-02-06T03:34:34.954Z,24.8
2019-02-06T03:35:36.318Z,24.9
2019-02-06T03:36:40.447Z,24.8
2019-02-06T03:37:39.019Z,24.7
2019-02-06T03:38:40.398Z,24.6
2019-02-06T03:39:41.756Z,24.6
2019-02-06T03:40:43.137Z,24.6
2019-02-06T03:41:44.591Z,24.8
2019-02-06T03:42:45.842Z,24.5
2019-02-06T03:43:47.165Z,24.7
2019-02-06T03:44:48.535Z,24.5
2019-02-06T03:45:49.907Z,24.8
2019-02-06T03:46:51.283Z,24.8
2019-02-06T03:47:52.653Z,24.7
2019-02-06T03:48:54.025Z,24.6
2019-02-06T03:49:55.395Z,24.5
2019-02-06T03:50:56.762Z,24.6
2019-02-06T03:51:58.095Z,24.5
2019-02-06T03:52:59.462Z,24.6
2019-02-06T03:54:00.831Z,24.8
2019-02-06T03:55:02.220Z,24.7
2019-02-06T03:56:03.587Z,24.6
2019-02-06T03:57:04.956Z,24.7
2019-02-06T03:58:06.318Z,24.4
2019-02-06T03:59:07.690Z,24.4
2019-02-06T04:00:09.065Z,24.5
2019-02-06T04:01:11.561Z,24.5
2019-02-06T04:02:11.730Z,24.6
2019-02-06T04:03:13.115Z,24.6
2019-02-06T04:04:14.475Z,24.8
2019-02-06T04:05:15.873Z,24.7
2019-02-06T04:06:17.212Z,24.7
2019-02-06T04:07:18.580Z,24.6
2019-02-06T04:08:19.949Z,24.7
2019-02-06T04:09:21.315Z,24.5
2019-02-06T04:10:22.655Z,24.5
2019-02-06T04:11:24.026Z,24.6
2019-02-06T04:12:25.387Z,24.5
2019-02-06T04:13:26.775Z,24.6
2019-02-06T04:14:28.138Z,24.4
2019-02-06T04:15:29.505Z,24.4
2019-02-06T04:16:30.889Z,24.5
2019-02-06T04:17:32.250Z,24.4
2019-02-06T04:18:33.614Z,24.2
2019-02-06T04:19:34.954Z,24.4
2019-02-06T04:20:36.283Z,24.4
2019-02-06T04:21:37.656Z,24.4
2019-02-06T04:22:39.095Z,24.4
2019-02-06T04:23:40.361Z,24.5
2019-02-06T04:24:41.730Z,24.4
2019-02-06T04:25:43.925Z,24.4
2019-02-06T04:26:45.287Z,24.4
2019-02-06T04:27:46.657Z,24.4
2019-02-06T04:28:48.029Z,24.3
2019-02-06T04:29:49.360Z,24.4
2019-02-06T04:30:50.745Z,24.4
2019-02-06T04:31:52.111Z,24.4
2019-02-06T04:32:53.486Z,24.4
2019-02-06T04:33:54.857Z,24.3
2019-02-06T04:34:56.220Z,24.3
2019-02-06T04:35:57.664Z,24.4
2019-02-06T04:37:06.825Z,24.3
2019-02-06T04:38:00.251Z,24.3
2019-02-06T04:39:01.593Z,24.3
2019-02-06T04:40:02.961Z,24.3
2019-02-06T04:41:04.331Z,24.3
2019-02-06T04:42:05.731Z,24.3
2019-02-06T04:43:07.108Z,24.4
2019-02-06T04:44:08.474Z,24.3
2019-02-06T04:45:09.844Z,24.4
2019-02-06T04:46:11.214Z,24.4
2019-02-06T04:47:12.587Z,24.4
2019-02-06T04:48:13.913Z,24.4
2019-02-06T04:49:15.286Z,24.4
2019-02-06T04:50:16.655Z,24.4
2019-02-06T04:51:18.030Z,24.4
2019-02-06T04:52:19.398Z,24.4
2019-02-06T04:53:20.770Z,24.4
2019-02-06T04:54:22.136Z,24.3
2019-02-06T04:55:23.503Z,24.3
2019-02-06T04:56:24.872Z,24.3
2019-02-06T04:57:26.204Z,24.5
2019-02-06T04:58:27.581Z,24.5
2019-02-06T04:59:28.947Z,24.5
2019-02-06T05:00:30.316Z,24.4
2019-02-06T05:01:31.696Z,24.6
2019-02-06T05:02:33.074Z,24.6
2019-02-06T05:03:34.441Z,24.5
2019-02-06T05:04:35.802Z,24.3
2019-02-06T05:05:37.196Z,24.3
2019-02-06T05:06:38.512Z,24.4
2019-02-06T05:07:39.889Z,24.3
2019-02-06T05:08:41.254Z,24.5
2019-02-06T05:09:42.623Z,24.5
2019-02-06T05:10:43.986Z,24.4
2019-02-06T05:11:45.357Z,24.3
2019-02-06T05:12:46.733Z,24.4
2019-02-06T05:13:48.098Z,24.4
2019-02-06T05:14:49.435Z,24.4
2019-02-06T05:15:50.795Z,24.4
2019-02-06T05:16:52.165Z,24.3
2019-02-06T05:17:55.848Z,24.4
2019-02-06T05:18:54.877Z,24.3
2019-02-06T05:19:56.242Z,24.3
2019-02-06T05:20:57.617Z,24.3
2019-02-06T05:21:58.999Z,24.3
2019-02-06T05:23:00.355Z,24.2
2019-02-06T05:24:01.692Z,24.5
2019-02-06T05:25:03.059Z,24.4
2019-02-06T05:26:04.427Z,24.4
2019-02-06T05:27:05.796Z,24.4
2019-02-06T05:28:07.166Z,24.4
2019-02-06T05:29:08.578Z,24.4
2019-02-06T05:30:09.906Z,24.5
2019-02-06T05:31:11.273Z,24.3
2019-02-06T05:32:12.639Z,24.5
2019-02-06T05:33:14.901Z,24.3
2019-02-06T05:34:16.267Z,24.4
2019-02-06T05:35:17.638Z,24.4
2019-02-06T05:36:19.000Z,24.4
2019-02-06T05:37:31.655Z,24.3
2019-02-06T05:38:21.693Z,24.3
2019-02-06T05:39:23.073Z,24.3
2019-02-06T05:40:24.433Z,24.4
2019-02-06T05:41:25.808Z,24.4
2019-02-06T05:42:27.144Z,24.4
2019-02-06T05:43:28.624Z,24.4
2019-02-06T05:44:29.851Z,24.3
2019-02-06T05:45:31.220Z,24.4
2019-02-06T05:46:32.586Z,24.4
2019-02-06T05:47:33.985Z,24.4
2019-02-06T05:48:35.360Z,24.4
2019-02-06T05:49:36.737Z,24.4
2019-02-06T05:50:38.092Z,24.3
2019-02-06T05:51:39.469Z,24.4
2019-02-06T05:52:40.884Z,24.4
2019-02-06T05:53:42.205Z,24.4
2019-02-06T05:54:43.582Z,24.4
2019-02-06T05:55:44.947Z,24.3
2019-02-06T05:56:46.324Z,24.4
2019-02-06T05:57:47.694Z,24.3
2019-02-06T05:58:49.059Z,24.3
2019-02-06T05:59:50.422Z,24.4
2019-02-06T06:00:51.769Z,24.3
2019-02-06T06:01:53.141Z,24.4
2019-02-06T06:02:54.540Z,24.3
2019-02-06T06:03:55.915Z,24.4
2019-02-06T06:04:57.283Z,24.3
2019-02-06T06:05:58.657Z,24.4
2019-02-06T06:07:00.018Z,24.4
2019-02-06T06:08:01.387Z,24.3
2019-02-06T06:09:02.776Z,24.4
2019-02-06T06:10:04.139Z,24.3
2019-02-06T06:11:05.486Z,24.4
2019-02-06T06:12:06.863Z,24.4
2019-02-06T06:13:08.236Z,24.4
2019-02-06T06:14:09.601Z,24.4
2019-02-06T06:15:10.989Z,24.4
2019-02-06T06:16:12.382Z,24.3
2019-02-06T06:17:13.757Z,24.4
2019-02-06T06:18:15.114Z,24.3
2019-02-06T06:19:16.480Z,24.4
2019-02-06T06:20:17.871Z,24.3
2019-02-06T06:21:19.245Z,24.4
2019-02-06T06:22:20.619Z,24.4
2019-02-06T06:23:21.973Z,24.4
2019-02-06T06:24:23.351Z,24.3
2019-02-06T06:25:24.812Z,24.3
2019-02-06T06:26:26.063Z,24.5
2019-02-06T06:27:27.404Z,24.4
2019-02-06T06:28:28.774Z,24.4
2019-02-06T06:29:30.139Z,24.3
2019-02-06T06:30:31.516Z,24.4
2019-02-06T06:31:32.880Z,24.3
2019-02-06T06:32:34.249Z,24.7
2019-02-06T06:33:35.623Z,25.0
2019-02-06T06:34:36.989Z,24.8
2019-02-06T06:35:38.358Z,25.2
2019-02-06T06:36:39.696Z,25.2
2019-02-06T06:37:41.477Z,25.3
2019-02-06T06:38:42.394Z,25.1
2019-02-06T06:39:43.767Z,25.0
2019-02-06T06:40:45.131Z,25.0
2019-02-06T06:41:46.500Z,25.2
2019-02-06T06:42:47.868Z,25.1
2019-02-06T06:43:49.254Z,25.4
2019-02-06T06:44:50.619Z,25.4
2019-02-06T06:45:51.964Z,25.7
2019-02-06T06:46:53.343Z,26.0
2019-02-06T06:47:54.709Z,25.8
2019-02-06T06:48:56.072Z,26.1
2019-02-06T06:49:57.438Z,26.3
2019-02-06T06:50:58.805Z,26.2
2019-02-06T06:52:00.173Z,26.5
2019-02-06T06:53:01.545Z,26.3
2019-02-06T06:54:02.914Z,26.4
2019-02-06T06:55:04.247Z,26.3
2019-02-06T06:56:05.621Z,26.3
2019-02-06T06:57:06.983Z,26.5
2019-02-06T06:58:08.415Z,26.4
2019-02-06T06:59:09.804Z,26.4
2019-02-06T07:00:11.179Z,26.5
2019-02-06T07:01:12.546Z,26.4
2019-02-06T07:02:13.919Z,26.4
2019-02-06T07:03:15.291Z,26.5
2019-02-06T07:04:16.762Z,26.6
2019-02-06T07:05:18.023Z,26.6
2019-02-06T07:06:19.392Z,26.5
2019-02-06T07:07:20.771Z,26.6
2019-02-06T07:08:22.151Z,26.6
2019-02-06T07:09:23.521Z,26.6
2019-02-06T07:10:24.891Z,26.4
2019-02-06T07:11:26.258Z,26.5
2019-02-06T07:12:27.674Z,26.4
2019-02-06T07:13:28.957Z,26.5
2019-02-06T07:14:30.347Z,26.6
2019-02-06T07:15:31.715Z,26.3
2019-02-06T07:16:33.116Z,26.5
2019-02-06T07:17:34.492Z,26.5
2019-02-06T07:18:35.863Z,26.2
2019-02-06T07:19:37.229Z,26.3
2019-02-06T07:20:38.603Z,26.1
2019-02-06T07:21:39.977Z,26.0
2019-02-06T07:22:41.316Z,25.9
2019-02-06T07:23:42.684Z,26.4
2019-02-06T07:24:44.059Z,26.0
2019-02-06T07:25:45.427Z,26.1
2019-02-06T07:26:46.802Z,26.3
2019-02-06T07:27:48.191Z,26.2
2019-02-06T07:28:49.615Z,26.3
2019-02-06T07:29:51.059Z,26.2
2019-02-06T07:30:52.507Z,26.2
2019-02-06T07:31:53.879Z,26.3
2019-02-06T07:32:55.224Z,26.3
2019-02-06T07:33:56.599Z,26.3
2019-02-06T07:34:57.963Z,26.3
2019-02-06T07:35:59.340Z,26.2
2019-02-06T07:37:00.710Z,26.3
2019-02-06T07:38:02.088Z,26.4
2019-02-06T07:39:03.458Z,26.2
2019-02-06T07:40:04.819Z,26.1
2019-02-06T07:41:06.166Z,26.0
2019-02-06T07:42:07.546Z,25.9
2019-02-06T07:43:08.918Z,26.0
2019-02-06T07:44:13.297Z,26.1
2019-02-06T07:45:11.672Z,26.2
2019-02-06T07:46:13.090Z,25.6
2019-02-06T07:47:14.545Z,25.8
2019-02-06T07:48:16.022Z,26.0
2019-02-06T07:49:17.392Z,25.6
2019-02-06T07:50:18.766Z,26.0
2019-02-06T07:51:20.120Z,25.5
2019-02-06T07:52:21.496Z,25.6
2019-02-06T07:53:22.860Z,25.7
2019-02-06T07:54:24.269Z,25.6
2019-02-06T07:55:25.641Z,25.7
2019-02-06T07:56:27.000Z,25.5
2019-02-06T07:57:28.380Z,25.3
2019-02-06T07:58:29.762Z,25.3
2019-02-06T07:59:31.161Z,25.4
2019-02-06T08:00:32.466Z,25.5
2019-02-06T08:01:33.848Z,25.4
2019-02-06T08:02:35.260Z,25.3
2019-02-06T08:03:36.717Z,25.5
2019-02-06T08:04:38.108Z,25.3
2019-02-06T08:05:39.531Z,25.3
2019-02-06T08:06:40.902Z,25.1
2019-02-06T08:07:42.254Z,25.3
2019-02-06T08:08:43.603Z,25.3
2019-02-06T08:09:44.971Z,25.2
2019-02-06T08:10:46.345Z,25.2
2019-02-06T08:11:47.721Z,25.1
2019-02-06T08:12:49.099Z,25.3
2019-02-06T08:13:50.466Z,25.2
2019-02-06T08:14:51.851Z,25.3
2019-02-06T08:15:53.267Z,25.3
2019-02-06T08:16:54.710Z,25.3
2019-02-06T08:17:56.075Z,25.2
2019-02-06T08:18:57.441Z,24.9
2019-02-06T08:19:58.928Z,24.8
2019-02-06T08:21:00.165Z,24.8
2019-02-06T08:22:01.534Z,24.7
2019-02-06T08:23:02.902Z,24.5
2019-02-06T08:24:04.271Z,24.5
2019-02-06T08:25:05.615Z,24.5
2019-02-06T08:26:06.989Z,24.5
2019-02-06T08:27:08.371Z,24.7
2019-02-06T08:28:09.784Z,24.2
2019-02-06T08:29:11.138Z,24.3
2019-02-06T08:30:12.574Z,24.4
2019-02-06T08:31:14.065Z,24.3
2019-02-06T08:32:15.590Z,24.1
2019-02-06T08:33:16.964Z,24.2
2019-02-06T08:34:18.338Z,24.4
2019-02-06T08:35:19.703Z,24.0
2019-02-06T08:36:21.042Z,24.0
2019-02-06T08:37:22.431Z,24.1
2019-02-06T08:38:23.802Z,24.0
2019-02-06T08:39:25.172Z,23.8
2019-02-06T08:40:26.555Z,23.9
2019-02-06T08:41:27.939Z,23.8
2019-02-06T08:42:29.300Z,23.9
2019-02-06T08:43:30.783Z,23.9
2019-02-06T08:44:32.018Z,23.8
2019-02-06T08:45:33.443Z,23.8
2019-02-06T08:46:35.059Z,23.7
2019-02-06T08:47:36.418Z,23.9
2019-02-06T08:48:37.811Z,23.8
2019-02-06T08:49:39.230Z,23.8
2019-02-06T08:50:40.581Z,23.9
2019-02-06T08:51:41.948Z,23.3
2019-02-06T08:52:43.326Z,23.9
2019-02-06T08:53:44.694Z,23.7
2019-02-06T08:54:46.039Z,23.7
2019-02-06T08:55:47.421Z,23.9
2019-02-06T08:56:48.809Z,23.8
2019-02-06T08:57:50.173Z,23.4
2019-02-06T08:58:51.546Z,23.6
2019-02-06T08:59:53.063Z,23.2
2019-02-06T09:00:54.529Z,23.2
2019-02-06T09:01:55.911Z,23.1
2019-02-06T09:02:57.292Z,23.2
2019-02-06T09:03:58.623Z,23.5
2019-02-06T09:05:00.012Z,23.1
2019-02-06T09:06:01.384Z,23.6
2019-02-06T09:07:02.754Z,23.2
2019-02-06T09:08:04.167Z,23.2
2019-02-06T09:09:05.537Z,23.2
2019-02-06T09:10:06.966Z,23.3
2019-02-06T09:11:08.340Z,23.3
2019-02-06T09:12:09.761Z,23.2
2019-02-06T09:13:11.117Z,23.3
2019-02-06T09:14:12.731Z,23.3
2019-02-06T09:15:14.033Z,23.2
2019-02-06T09:16:15.407Z,23.2
2019-02-06T09:17:16.784Z,23.1
2019-02-06T09:18:18.164Z,23.2
2019-02-06T09:19:19.534Z,23.2
2019-02-06T09:20:20.915Z,23.1
2019-02-06T09:21:22.280Z,23.3
2019-02-06T09:22:23.620Z,23.2
2019-02-06T09:23:25.002Z,23.1
2019-02-06T09:24:26.419Z,23.2
2019-02-06T09:25:27.806Z,23.2
2019-02-06T09:26:29.197Z,23.2
2019-02-06T09:27:30.568Z,23.2
2019-02-06T09:28:31.944Z,23.2
2019-02-06T09:29:33.447Z,23.2
2019-02-06T09:30:34.851Z,23.1
2019-02-06T09:31:36.192Z,23.2
2019-02-06T09:32:37.591Z,23.3
2019-02-06T09:33:38.940Z,22.9
2019-02-06T09:34:40.315Z,22.8
2019-02-06T09:35:41.685Z,22.8
2019-02-06T09:36:43.075Z,22.9
2019-02-06T09:37:44.454Z,22.9
2019-02-06T09:38:45.837Z,22.4
2019-02-06T09:39:47.211Z,22.0
2019-02-06T09:40:49.501Z,22.1
2019-02-06T09:41:49.892Z,22.1
2019-02-06T09:42:51.267Z,22.3
2019-02-06T09:43:52.819Z,22.7
2019-02-06T09:44:54.442Z,22.4
2019-02-06T09:45:57.075Z,22.5
2019-02-06T09:46:57.156Z,22.3
2019-02-06T09:47:58.533Z,22.7
2019-02-06T09:48:59.904Z,22.5
2019-02-06T09:50:01.274Z,22.5
2019-02-06T09:51:02.660Z,22.5
2019-02-06T09:52:04.040Z,22.5
2019-02-06T09:53:05.398Z,22.6
2019-02-06T09:54:06.777Z,22.7
2019-02-06T09:55:08.147Z,22.9
2019-02-06T09:56:09.513Z,22.8
2019-02-06T09:57:10.886Z,22.9
2019-02-06T09:58:12.317Z,22.8
2019-02-06T09:59:13.787Z,22.8
2019-02-06T10:00:15.163Z,22.8
2019-02-06T10:01:16.533Z,22.9
2019-02-06T10:02:17.934Z,22.7
2019-02-06T10:03:19.283Z,23.0
2019-02-06T10:04:20.675Z,22.9
2019-02-06T10:05:22.032Z,22.8
2019-02-06T10:06:23.401Z,22.8
2019-02-06T10:07:24.738Z,22.9
2019-02-06T10:08:26.123Z,22.8
2019-02-06T10:09:27.498Z,22.7
2019-02-06T10:10:28.873Z,22.9
2019-02-06T10:11:30.263Z,23.1
2019-02-06T10:12:31.661Z,23.2
2019-02-06T10:13:33.081Z,23.2
2019-02-06T10:14:34.592Z,23.3
2019-02-06T10:15:35.963Z,23.3
2019-02-06T10:16:37.314Z,23.2
2019-02-06T10:17:38.693Z,23.3
2019-02-06T10:18:40.068Z,23.3
2019-02-06T10:19:42.497Z,23.5
2019-02-06T10:20:42.817Z,23.8
2019-02-06T10:21:44.189Z,23.8
2019-02-06T10:22:45.566Z,23.7
2019-02-06T10:23:46.945Z,23.7
2019-02-06T10:24:48.330Z,23.8
2019-02-06T10:25:49.675Z,23.7
2019-02-06T10:26:51.054Z,23.9
2019-02-06T10:27:52.499Z,23.7
2019-02-06T10:28:53.940Z,24.1
2019-02-06T10:29:55.317Z,23.7
2019-02-06T10:30:56.684Z,24.0
2019-02-06T10:31:58.068Z,23.9
2019-02-06T10:32:59.440Z,24.0
2019-02-06T10:34:00.811Z,24.0
2019-02-06T10:35:02.209Z,24.1
2019-02-06T10:36:03.551Z,24.1
2019-02-06T10:37:04.922Z,24.1
2019-02-06T10:38:06.294Z,24.1
2019-02-06T10:39:07.687Z,24.5
2019-02-06T10:40:09.069Z,24.3
2019-02-06T10:41:10.450Z,24.4
2019-02-06T10:42:11.967Z,24.5
2019-02-06T10:43:13.392Z,24.5
2019-02-06T10:44:14.778Z,24.4
2019-02-06T10:45:16.147Z,24.4
2019-02-06T10:46:18.346Z,24.3
2019-02-06T10:47:18.989Z,24.7
2019-02-06T10:48:20.378Z,24.9
2019-02-06T10:49:21.755Z,24.2
2019-02-06T10:50:23.123Z,24.2
2019-02-06T10:51:24.507Z,24.2
2019-02-06T10:52:25.870Z,24.3
2019-02-06T10:53:27.239Z,24.7
2019-02-06T10:54:28.656Z,24.6
2019-02-06T10:55:30.045Z,24.8
2019-02-06T10:56:31.498Z,24.6
2019-02-06T10:57:32.873Z,24.5
2019-02-06T10:58:34.251Z,24.7
2019-02-06T10:59:35.700Z,24.2
2019-02-06T11:00:37.172Z,24.7
2019-02-06T11:01:38.582Z,24.2
2019-02-06T11:02:39.954Z,24.1
2019-02-06T11:03:41.299Z,24.8
2019-02-06T11:04:42.668Z,24.7
2019-02-06T11:05:44.049Z,24.7
2019-02-06T11:06:45.424Z,24.7
2019-02-06T11:07:46.809Z,24.2
2019-02-06T11:08:48.187Z,24.8
2019-02-06T11:09:49.562Z,24.2
2019-02-06T11:10:51.060Z,24.2
2019-02-06T11:11:52.503Z,24.4
2019-02-06T11:12:53.800Z,24.4
2019-02-06T11:13:55.232Z,24.4
2019-02-06T11:14:56.705Z,24.5
2019-02-06T11:15:58.262Z,24.4
2019-02-06T11:16:59.602Z,24.4
2019-02-06T11:18:01.147Z,24.1
2019-02-06T11:19:02.311Z,23.7
2019-02-06T11:20:03.719Z,23.0
2019-02-06T11:21:05.039Z,21.5
2019-02-06T11:22:06.449Z,20.6
2019-02-06T11:23:07.836Z,20.5
2019-02-06T11:24:09.218Z,20.0
2019-02-06T11:25:10.614Z,19.1
2019-02-06T11:26:11.984Z,19.0
2019-02-06T11:27:13.363Z,19.3
2019-02-06T11:28:14.808Z,19.2
2019-02-06T11:29:16.391Z,18.8
2019-02-06T11:30:17.838Z,18.4
2019-02-06T11:31:19.193Z,18.8
2019-02-06T11:32:20.577Z,18.8
2019-02-06T11:33:21.974Z,18.7
2019-02-06T11:34:23.328Z,18.7
2019-02-06T11:35:24.702Z,18.4
2019-02-06T11:36:26.077Z,19.1
2019-02-06T11:37:27.461Z,20.0
2019-02-06T11:38:28.830Z,20.9
2019-02-06T11:39:30.218Z,21.5
2019-02-06T11:40:31.559Z,21.6
2019-02-06T11:41:32.941Z,22.2
2019-02-06T11:42:34.317Z,22.4
2019-02-06T11:43:35.765Z,22.8
2019-02-06T11:44:37.273Z,22.5
2019-02-06T11:45:38.661Z,22.5
2019-02-06T11:46:40.045Z,22.6
2019-02-06T11:47:41.748Z,22.7
2019-02-06T11:48:43.432Z,22.7
2019-02-06T11:49:44.506Z,22.9
2019-02-06T11:50:45.881Z,22.8
2019-02-06T11:51:47.257Z,22.8
2019-02-06T11:52:48.636Z,22.8
2019-02-06T11:53:50.018Z,22.8
2019-02-06T11:54:51.389Z,23.2
2019-02-06T11:55:52.756Z,22.9
2019-02-06T11:56:54.135Z,22.8
2019-02-06T11:57:55.695Z,22.9
2019-02-06T11:58:57.070Z,22.8
2019-02-06T11:59:58.450Z,22.7
2019-02-06T12:00:59.864Z,22.7
2019-02-06T12:02:01.245Z,22.8
2019-02-06T12:03:02.628Z,22.8
2019-02-06T12:04:04.003Z,22.9
2019-02-06T12:05:05.384Z,23.0
2019-02-06T12:06:07.140Z,23.2
2019-02-06T12:07:08.839Z,23.3
2019-02-06T12:08:12.476Z,23.3
2019-02-06T12:09:11.519Z,23.2
2019-02-06T12:10:12.905Z,23.1
2019-02-06T12:11:14.370Z,23.2
2019-02-06T12:12:15.614Z,23.1
2019-02-06T12:13:17.022Z,23.3
2019-02-06T12:14:18.376Z,23.2
2019-02-06T12:15:19.751Z,23.1
2019-02-06T12:16:21.182Z,23.2
2019-02-06T12:17:22.469Z,23.2
2019-02-06T12:18:23.850Z,22.8
2019-02-06T12:19:25.253Z,22.5
2019-02-06T12:20:26.610Z,22.7
2019-02-06T12:21:28.011Z,22.6
2019-02-06T12:22:29.382Z,22.7
2019-02-06T12:23:32.256Z,22.6
2019-02-06T12:24:32.149Z,22.5
2019-02-06T12:25:34.508Z,22.5
2019-02-06T12:26:34.861Z,22.8
2019-02-06T12:27:36.303Z,22.7
2019-02-06T12:28:37.746Z,22.7
2019-02-06T12:29:39.248Z,22.7
2019-02-06T12:30:40.623Z,22.9
2019-02-06T12:31:42.044Z,22.9
2019-02-06T12:32:52.026Z,23.0
2019-02-06T12:33:44.728Z,23.2
2019-02-06T12:34:46.065Z,23.2
2019-02-06T12:35:47.453Z,23.2
2019-02-06T12:36:48.816Z,23.2
2019-02-06T12:37:50.195Z,23.2
2019-02-06T12:38:53.654Z,23.2
2019-02-06T12:39:52.993Z,23.2
2019-02-06T12:40:54.306Z,23.2
2019-02-06T12:41:55.675Z,23.2
2019-02-06T12:42:57.246Z,23.1
2019-02-06T12:43:58.763Z,23.1
2019-02-06T12:45:00.316Z,23.3
2019-02-06T12:46:01.460Z,23.2
2019-02-06T12:47:02.904Z,23.2
2019-02-06T12:48:04.318Z,23.2
2019-02-06T12:49:05.693Z,23.2
2019-02-06T12:50:07.073Z,23.3
2019-02-06T12:51:08.450Z,23.3
2019-02-06T12:52:09.790Z,23.2
2019-02-06T12:53:11.172Z,23.3
2019-02-06T12:54:12.536Z,23.3
2019-02-06T12:55:13.933Z,23.1
2019-02-06T12:56:15.321Z,23.2
2019-02-06T12:57:16.806Z,23.7
2019-02-06T12:58:18.265Z,23.5
2019-02-06T12:59:19.649Z,23.7
2019-02-06T13:00:21.035Z,23.7
2019-02-06T13:01:22.401Z,23.8
2019-02-06T13:02:23.785Z,23.8
2019-02-06T13:03:25.164Z,23.5
2019-02-06T13:04:26.556Z,23.3
2019-02-06T13:05:27.928Z,23.3
2019-02-06T13:06:29.311Z,23.2
2019-02-06T13:07:30.686Z,23.4
2019-02-06T13:08:32.057Z,23.1
2019-02-06T13:09:33.398Z,23.2
2019-02-06T13:10:34.785Z,23.2
2019-02-06T13:11:36.331Z,23.1
2019-02-06T13:12:37.891Z,23.2
2019-02-06T13:13:39.234Z,23.1
2019-02-06T13:14:40.607Z,23.0
2019-02-06T13:15:41.977Z,23.1
2019-02-06T13:16:43.354Z,23.1
2019-02-06T13:17:44.729Z,23.1
2019-02-06T13:18:46.070Z,23.2
2019-02-06T13:19:47.445Z,23.2
2019-02-06T13:20:51.192Z,23.3
2019-02-06T13:21:50.176Z,23.0
2019-02-06T13:22:51.598Z,23.1
2019-02-06T13:23:52.960Z,23.1
2019-02-06T13:24:54.321Z,23.1
2019-02-06T13:25:55.753Z,23.3
2019-02-06T13:26:57.229Z,23.1
2019-02-06T13:27:58.644Z,23.0
2019-02-06T13:29:00.386Z,23.0
2019-02-06T13:30:01.756Z,23.3
2019-02-06T13:31:03.132Z,23.0
2019-02-06T13:32:04.506Z,22.9
2019-02-06T13:33:05.949Z,23.1
2019-02-06T13:34:07.806Z,22.8
2019-02-06T13:35:09.205Z,23.1
2019-02-06T13:36:10.591Z,23.2
2019-02-06T13:37:11.961Z,22.5